Latest Coastal Weather Observations for Portland Harbour

IDS60701

Issued at 2:21 pm CDT Sunday 14 February 2016 (issued every 10 minutes, with the page automatically refreshed every 10 minutes)

About coastal observations | Map of coastal stations | Coastal observations for SA | Marine services | Other Formats
Station Details ID: 090192 Name: PORTLAND NTC AWS Lat: -38.34 Lon: 141.61 Height: 0.0 m
Data from the previous 72 hours. | See also: Recent months for locations in South Australia
Date/Time
CDT
Temp

°C
Wind Pressure Rain
since 9am
mm
Weather Cloud Vis
km
Sea
Height
m
Swell
Dir
 
Speed
knots
Gust
knots
hPa Trend Height
m
Period
s
Dir
14/02:00pm 17.1 SW 15 23 1013.0 - - - - - - - - -
14/01:52pm 16.9 WSW 19 29 1013.0 - - - - - - - - -
14/01:46pm 17.8 WSW 18 29 1012.8 - - - - - - - - -
14/01:43pm 19.3 W 16 27 1012.5 - - - - - - - - -
14/01:30pm 19.3 WSW 15 20 1012.4 - - - - - - - - -
14/01:00pm 18.2 WSW 10 16 1012.4 - - - - - - - - -
14/12:30pm 16.5 WSW 18 29 1012.9 - - - - - - - - -
14/12:20pm 19.1 WSW 15 30 1012.7 - - - - - - - - -
14/12:00pm 19.1 WSW 16 23 1012.6 - - - - - - - - -
14/11:30am 19.4 WSW 17 25 1012.4 - - - - - - - - -
14/11:00am 18.6 WSW 16 24 1012.5 - - - - - - - - -
14/10:30am 18.6 WSW 13 19 1012.5 - - - - - - - - -
14/10:00am 17.1 WNW 11 16 1012.3 - - - - - - - - -
14/09:30am 16.3 WSW 13 20 1012.5 - - - - - - - - -
14/09:00am 17.5 WNW 12 19 1011.9 - - - - - - - - -
14/08:30am 17.2 NW 11 15 1011.6 - - - - - - - - -
14/08:00am 16.7 WNW 9 14 1011.4 - - - - - - - - -
14/07:30am 16.9 WNW 5 8 1011.2 - - - - - - - - -
14/07:00am 16.4 WNW 3 6 1011.0 - - - - - - - - -
14/06:30am 15.7 WNW 4 6 1010.7 - - - - - - - - -
14/06:00am 16.1 W 4 8 1010.2 - - - - - - - - -
14/05:30am 16.7 WNW 8 11 1009.9 - - - - - - - - -
14/05:00am 16.6 W 5 8 1009.6 - - - - - - - - -
14/04:30am 16.2 W 5 8 1009.5 - - - - - - - - -
14/04:00am 15.7 W 5 6 1009.5 - - - - - - - - -
14/03:30am 15.9 W 5 7 1009.5 - - - - - - - - -
14/03:00am 15.8 W 5 9 1009.7 - - - - - - - - -
14/02:30am 15.6 W 4 6 1009.9 - - - - - - - - -
14/02:00am 15.1 WNW 4 6 1010.0 - - - - - - - - -
14/01:30am 14.1 W 4 6 1010.1 - - - - - - - - -
14/01:00am 14.8 WNW 5 8 1010.1 - - - - - - - - -
14/12:30am 14.7 WNW 3 4 1010.3 - - - - - - - - -
14/12:00am 15.3 NW 5 8 1010.5 - - - - - - - - -
 
Date/Time
CDT
Temp

°C
Wind Pressure Rain
since 9am
mm
Weather Cloud Vis
km
Sea
Height
m
Swell
Dir
 
Speed
knots
Gust
knots
hPa Trend Height
m
Period
s
Dir
13/11:30pm 15.7 NNW 4 6 1010.6 - - - - - - - - -
13/11:00pm 16.2 NW 4 6 1011.0 - - - - - - - - -
13/10:30pm 16.7 W 4 5 1011.3 - - - - - - - - -
13/10:00pm 17.1 W 5 9 1011.4 - - - - - - - - -
13/09:30pm 17.9 WSW 7 10 1011.1 - - - - - - - - -
13/09:00pm 18.4 W 9 13 1010.8 - - - - - - - - -
13/08:30pm 18.3 WSW 10 14 1010.6 - - - - - - - - -
13/08:00pm 18.3 WSW 9 13 1010.2 - - - - - - - - -
13/07:30pm 18.7 WSW 11 17 1009.9 - - - - - - - - -
13/07:00pm 18.8 WSW 10 15 1009.7 - - - - - - - - -
13/06:30pm 18.5 WSW 9 13 1009.4 - - - - - - - - -
13/06:00pm 17.7 WSW 10 16 1009.4 - - - - - - - - -
13/05:30pm 18.0 WSW 15 22 1009.3 - - - - - - - - -
13/05:00pm 20.0 WSW 15 24 1008.9 - - - - - - - - -
13/04:30pm 20.7 WSW 15 22 1008.8 - - - - - - - - -
13/04:00pm 19.3 SW 15 21 1008.9 - - - - - - - - -
13/03:30pm 20.4 WSW 15 23 1008.8 - - - - - - - - -
13/03:00pm 22.1 W 16 24 1008.6 - - - - - - - - -
13/02:30pm 22.1 W 14 20 1008.7 - - - - - - - - -
13/02:00pm 22.6 W 15 22 1008.7 - - - - - - - - -
13/01:30pm 21.8 W 14 21 1008.8 - - - - - - - - -
13/01:00pm 21.5 WNW 13 19 1009.2 - - - - - - - - -
13/12:30pm 21.3 W 13 22 1009.2 - - - - - - - - -
13/12:00pm 21.6 WSW 11 17 1009.4 - - - - - - - - -
13/11:30am 20.8 W 10 17 1009.3 - - - - - - - - -
13/11:00am 20.6 W 11 17 1009.3 - - - - - - - - -
13/10:30am 20.8 W 10 21 1009.3 - - - - - - - - -
13/10:00am 19.9 W 10 14 1009.3 - - - - - - - - -
13/09:30am 19.5 WNW 9 13 1009.4 - - - - - - - - -
13/09:00am 19.2 W 9 14 1009.4 - - - - - - - - -
13/08:30am 18.2 W 6 8 1009.5 - - - - - - - - -
13/08:00am 16.8 NW 3 5 1009.5 - - - - - - - - -
13/07:30am 15.7 WNW 3 4 1009.4 - - - - - - - - -
13/07:00am 15.7 W 2 3 1009.1 - - - - - - - - -
13/06:30am 15.8 NW 2 4 1008.6 - - - - - - - - -
13/06:00am 15.5 W 4 5 1008.5 - - - - - - - - -
13/05:30am 15.8 WNW 3 5 1008.3 - - - - - - - - -
13/05:00am 15.8 W 2 3 1008.4 - - - - - - - - -
13/04:30am 15.2 WSW 2 3 1008.2 - - - - - - - - -
13/04:00am 14.9 WNW 1 2 1008.0 - - - - - - - - -
13/03:30am 14.9 SW 2 4 1008.3 - - - - - - - - -
13/03:00am 14.6 SW 3 4 1008.5 - - - - - - - - -
13/02:30am 14.6 W 2 3 1008.7 - - - - - - - - -
13/02:00am 14.9 W 2 2 1009.1 - - - - - - - - -
13/01:30am 15.6 WSW 2 3 1009.3 - - - - - - - - -
13/01:00am 15.6 SW 2 3 1009.7 - - - - - - - - -
13/12:30am 16.0 W 3 5 1010.0 - - - - - - - - -
13/12:00am 16.3 WNW 3 4 1010.2 - - - - - - - - -
 
Date/Time
CDT
Temp

°C
Wind Pressure Rain
since 9am
mm
Weather Cloud Vis
km
Sea
Height
m
Swell
Dir
 
Speed
knots
Gust
knots
hPa Trend Height
m
Period
s
Dir
12/11:30pm 18.1 NNE 6 8 1010.1 - - - - - - - - -
12/11:00pm 18.4 NE 7 9 1010.4 - - - - - - - - -
12/10:30pm 18.6 NE 7 9 1010.9 - - - - - - - - -
12/10:00pm 18.5 NE 9 11 1011.0 - - - - - - - - -
12/09:30pm 18.4 NE 8 9 1011.4 - - - - - - - - -
12/09:00pm 18.5 ENE 5 7 1011.6 - - - - - - - - -
12/08:30pm 18.4 E 6 8 1011.4 - - - - - - - - -
12/08:00pm 18.8 ESE 7 8 1011.6 - - - - - - - - -
12/07:30pm 19.0 ESE 7 9 1011.5 - - - - - - - - -
12/07:00pm 19.3 ESE 8 11 1011.8 - - - - - - - - -
12/06:30pm 19.5 SE 9 11 1011.9 - - - - - - - - -
12/06:00pm 19.4 ESE 9 11 1011.8 - - - - - - - - -
12/05:30pm 19.5 ESE 10 12 1011.9 - - - - - - - - -
12/05:00pm 19.5 SE 10 13 1012.2 - - - - - - - - -
12/04:30pm 19.6 SE 11 13 1012.4 - - - - - - - - -
12/04:00pm 19.5 SE 11 13 1012.6 - - - - - - - - -
12/03:30pm 19.3 SE 12 14 1012.8 - - - - - - - - -
12/03:00pm 19.3 SE 12 15 1013.3 - - - - - - - - -
12/02:30pm 19.3 SE 12 14 1013.7 - - - - - - - - -
12/02:00pm 19.5 SE 11 14 1014.1 - - - - - - - - -
12/01:30pm 19.2 ESE 11 13 1014.3 - - - - - - - - -
12/01:00pm 19.3 ESE 10 12 1014.5 - - - - - - - - -
12/12:30pm 19.1 ESE 10 11 1014.8 - - - - - - - - -
12/12:00pm 19.0 ESE 9 11 1015.1 - - - - - - - - -
12/11:30am 19.0 ESE 9 11 1015.6 - - - - - - - - -
12/11:00am 18.9 ESE 8 10 1016.1 - - - - - - - - -
12/10:30am 18.6 ESE 7 9 1016.2 - - - - - - - - -
12/10:00am 18.1 E 8 9 1016.5 - - - - - - - - -
12/09:30am 17.7 E 8 10 1016.6 - - - - - - - - -
12/09:00am 17.7 E 9 12 1016.5 - - - - - - - - -
12/08:30am 17.7 E 8 11 1016.5 - - - - - - - - -
12/08:00am 17.6 ENE 11 13 1016.3 - - - - - - - - -
12/07:30am 17.6 E 11 13 1016.2 - - - - - - - - -
12/07:00am 17.6 E 11 12 1016.2 - - - - - - - - -
12/06:30am 17.5 ENE 10 12 1016.2 - - - - - - - - -
12/06:00am 17.9 E 11 14 1015.8 - - - - - - - - -
12/05:30am 18.0 E 12 14 1015.8 - - - - - - - - -
12/05:00am 17.8 E 12 15 1015.7 - - - - - - - - -
12/04:30am 18.0 E 11 15 1015.8 - - - - - - - - -
12/04:00am 18.0 ESE 11 15 1016.0 - - - - - - - - -
12/03:30am 17.9 ESE 11 15 1016.4 - - - - - - - - -
12/03:00am 18.1 ESE 11 15 1016.7 - - - - - - - - -
12/02:30am 18.1 ESE 12 15 1016.9 - - - - - - - - -
12/02:00am 18.3 ESE 14 17 1017.0 - - - - - - - - -
12/01:30am 18.4 ESE 11 16 1017.3 - - - - - - - - -
12/01:00am 18.4 ESE 11 14 1017.6 - - - - - - - - -
12/12:30am 18.3 ESE 12 14 1017.8 - - - - - - - - -
12/12:00am 18.5 SE 11 14 1018.0 - - - - - - - - -
 
Date/Time
CDT
Temp

°C
Wind Pressure Rain
since 9am
mm
Weather Cloud Vis
km
Sea
Height
m
Swell
Dir
 
Speed
knots
Gust
knots
hPa Trend Height
m
Period
s
Dir
11/11:30pm 18.5 SE 11 14 1018.1 - - - - - - - - -
11/11:00pm 18.6 SE 11 15 1018.4 - - - - - - - - -
11/10:30pm 18.6 SE 12 15 1018.4 - - - - - - - - -
11/10:00pm 18.7 SE 12 15 1018.3 - - - - - - - - -
11/09:30pm 18.8 ESE 12 15 1018.1 - - - - - - - - -
11/09:00pm 19.0 SE 11 14 1017.8 - - - - - - - - -
11/08:30pm 18.9 SE 12 15 1017.7 - - - - - - - - -
11/08:00pm 19.1 SE 13 16 1017.7 - - - - - - - - -
11/07:30pm 19.2 SE 11 15 1017.8 - - - - - - - - -
11/07:00pm 19.2 SE 13 16 1017.2 - - - - - - - - -
11/06:30pm 19.4 SE 13 16 1017.3 - - - - - - - - -
11/06:00pm 19.4 SE 13 18 1017.1 - - - - - - - - -
11/05:30pm 19.6 SE 12 15 1016.7 - - - - - - - - -
11/05:00pm 19.7 SE 12 15 1016.4 - - - - - - - - -
11/04:30pm 19.7 SE 13 17 1016.4 - - - - - - - - -
11/04:00pm 19.5 SE 13 16 1016.7 - - - - - - - - -
11/03:30pm 19.9 SE 13 16 1016.8 - - - - - - - - -
11/03:00pm 19.9 SE 12 14 1016.9 - - - - - - - - -
11/02:30pm 19.9 SE 12 14 1017.0 - - - - - - - - -
11/02:00pm 19.7 ESE 11 14 1017.2 - - - - - - - - -

Other Formats:

Comma delimited format used in spreadsheet applications
http://www.bom.gov.au/fwo/IDS60701/IDS60701.95826.axf

JavaScript Object Notation format (JSON) in row-major order
http://www.bom.gov.au/fwo/IDS60701/IDS60701.95826.json